sensor_id;sensor_type;location;lat;lon;timestamp;P1;durP1;ratioP1;P2;durP2;ratioP2
22650;SDS011;11492;42.646;23.400;2022-12-29T00:01:35;41.88;;;22.35;;
22650;SDS011;11492;42.646;23.400;2022-12-29T00:04:01;40.85;;;22.48;;
22650;SDS011;11492;42.646;23.400;2022-12-29T00:06:28;56.22;;;22.52;;
22650;SDS011;11492;42.646;23.400;2022-12-29T00:08:54;41.10;;;22.95;;
22650;SDS011;11492;42.646;23.400;2022-12-29T00:11:20;39.72;;;22.00;;
22650;SDS011;11492;42.646;23.400;2022-12-29T00:13:48;38.58;;;23.02;;
22650;SDS011;11492;42.646;23.400;2022-12-29T00:16:33;39.97;;;22.88;;
22650;SDS011;11492;42.646;23.400;2022-12-29T00:19:01;46.97;;;24.50;;
22650;SDS011;11492;42.646;23.400;2022-12-29T00:21:27;47.72;;;24.70;;
22650;SDS011;11492;42.646;23.400;2022-12-29T00:24:13;49.67;;;24.25;;
22650;SDS011;11492;42.646;23.400;2022-12-29T00:29:46;55.65;;;29.35;;
22650;SDS011;11492;42.646;23.400;2022-12-29T00:32:30;61.60;;;30.65;;
22650;SDS011;11492;42.646;23.400;2022-12-29T00:35:18;57.55;;;30.25;;
22650;SDS011;11492;42.646;23.400;2022-12-29T00:37:55;54.90;;;29.98;;
22650;SDS011;11492;42.646;23.400;2022-12-29T00:40:42;58.75;;;29.95;;
22650;SDS011;11492;42.646;23.400;2022-12-29T00:43:26;55.80;;;28.55;;
22650;SDS011;11492;42.646;23.400;2022-12-29T00:46:10;58.25;;;29.90;;
22650;SDS011;11492;42.646;23.400;2022-12-29T00:48:35;61.95;;;30.08;;
22650;SDS011;11492;42.646;23.400;2022-12-29T00:51:19;53.45;;;29.67;;
22650;SDS011;11492;42.646;23.400;2022-12-29T00:53:44;55.05;;;28.98;;
22650;SDS011;11492;42.646;23.400;2022-12-29T00:56:10;53.17;;;29.40;;
22650;SDS011;11492;42.646;23.400;2022-12-29T00:58:35;59.17;;;30.15;;
22650;SDS011;11492;42.646;23.400;2022-12-29T01:01:02;55.22;;;29.35;;
22650;SDS011;11492;42.646;23.400;2022-12-29T01:03:28;56.45;;;28.67;;
22650;SDS011;11492;42.646;23.400;2022-12-29T01:05:54;48.97;;;28.02;;
22650;SDS011;11492;42.646;23.400;2022-12-29T01:08:19;56.85;;;27.60;;
22650;SDS011;11492;42.646;23.400;2022-12-29T01:10:45;55.75;;;29.48;;
22650;SDS011;11492;42.646;23.400;2022-12-29T01:13:10;52.17;;;27.88;;
22650;SDS011;11492;42.646;23.400;2022-12-29T01:15:35;52.75;;;27.23;;
22650;SDS011;11492;42.646;23.400;2022-12-29T01:18:01;50.55;;;27.58;;
22650;SDS011;11492;42.646;23.400;2022-12-29T01:20:26;47.60;;;26.92;;
22650;SDS011;11492;42.646;23.400;2022-12-29T01:22:53;51.15;;;27.90;;
22650;SDS011;11492;42.646;23.400;2022-12-29T01:25:19;53.40;;;28.75;;
22650;SDS011;11492;42.646;23.400;2022-12-29T01:27:44;54.95;;;28.45;;
22650;SDS011;11492;42.646;23.400;2022-12-29T01:30:10;56.83;;;28.98;;
22650;SDS011;11492;42.646;23.400;2022-12-29T01:32:35;54.88;;;29.33;;
22650;SDS011;11492;42.646;23.400;2022-12-29T01:35:01;49.17;;;28.50;;
22650;SDS011;11492;42.646;23.400;2022-12-29T01:37:26;51.15;;;28.90;;
22650;SDS011;11492;42.646;23.400;2022-12-29T01:39:51;55.55;;;28.90;;
22650;SDS011;11492;42.646;23.400;2022-12-29T01:42:18;58.22;;;29.27;;
22650;SDS011;11492;42.646;23.400;2022-12-29T01:44:52;52.50;;;28.02;;
22650;SDS011;11492;42.646;23.400;2022-12-29T01:48:03;52.58;;;29.17;;
22650;SDS011;11492;42.646;23.400;2022-12-29T01:50:37;56.50;;;28.10;;
22650;SDS011;11492;42.646;23.400;2022-12-29T01:55:48;57.28;;;29.65;;
22650;SDS011;11492;42.646;23.400;2022-12-29T01:58:19;57.25;;;29.80;;
22650;SDS011;11492;42.646;23.400;2022-12-29T02:00:47;56.20;;;29.23;;
22650;SDS011;11492;42.646;23.400;2022-12-29T02:03:13;52.17;;;27.80;;
22650;SDS011;11492;42.646;23.400;2022-12-29T02:08:23;52.78;;;28.15;;
22650;SDS011;11492;42.646;23.400;2022-12-29T02:10:51;59.60;;;29.50;;
22650;SDS011;11492;42.646;23.400;2022-12-29T02:13:18;52.25;;;28.77;;
22650;SDS011;11492;42.646;23.400;2022-12-29T02:24:48;51.65;;;28.55;;
22650;SDS011;11492;42.646;23.400;2022-12-29T02:33:14;62.60;;;27.73;;
22650;SDS011;11492;42.646;23.400;2022-12-29T02:38:46;50.60;;;27.92;;
22650;SDS011;11492;42.646;23.400;2022-12-29T02:47:16;51.13;;;27.85;;
22650;SDS011;11492;42.646;23.400;2022-12-29T02:50:21;52.58;;;26.63;;
22650;SDS011;11492;42.646;23.400;2022-12-29T02:52:51;53.42;;;27.00;;
22650;SDS011;11492;42.646;23.400;2022-12-29T02:55:22;50.97;;;27.30;;
22650;SDS011;11492;42.646;23.400;2022-12-29T02:57:47;51.90;;;26.77;;
22650;SDS011;11492;42.646;23.400;2022-12-29T03:00:16;48.58;;;24.80;;
22650;SDS011;11492;42.646;23.400;2022-12-29T03:11:27;41.00;;;23.15;;
22650;SDS011;11492;42.646;23.400;2022-12-29T03:17:58;40.45;;;21.70;;
22650;SDS011;11492;42.646;23.400;2022-12-29T03:20:32;40.83;;;21.25;;
22650;SDS011;11492;42.646;23.400;2022-12-29T03:23:04;40.22;;;22.00;;
22650;SDS011;11492;42.646;23.400;2022-12-29T03:25:35;41.38;;;21.90;;
22650;SDS011;11492;42.646;23.400;2022-12-29T03:28:10;33.65;;;20.55;;
22650;SDS011;11492;42.646;23.400;2022-12-29T03:33:07;71.53;;;29.60;;
22650;SDS011;11492;42.646;23.400;2022-12-29T03:35:37;65.72;;;29.52;;
22650;SDS011;11492;42.646;23.400;2022-12-29T03:38:07;57.83;;;29.13;;
22650;SDS011;11492;42.646;23.400;2022-12-29T03:40:38;64.57;;;30.13;;
22650;SDS011;11492;42.646;23.400;2022-12-29T03:43:08;54.95;;;28.10;;
22650;SDS011;11492;42.646;23.400;2022-12-29T03:45:34;56.50;;;28.42;;
22650;SDS011;11492;42.646;23.400;2022-12-29T03:48:00;51.58;;;27.67;;
22650;SDS011;11492;42.646;23.400;2022-12-29T03:50:25;50.35;;;27.73;;
22650;SDS011;11492;42.646;23.400;2022-12-29T03:52:51;48.78;;;26.60;;
22650;SDS011;11492;42.646;23.400;2022-12-29T03:55:16;48.08;;;26.02;;
22650;SDS011;11492;42.646;23.400;2022-12-29T03:57:42;49.63;;;25.88;;
22650;SDS011;11492;42.646;23.400;2022-12-29T04:00:07;50.22;;;26.73;;
22650;SDS011;11492;42.646;23.400;2022-12-29T04:02:33;49.95;;;28.05;;
22650;SDS011;11492;42.646;23.400;2022-12-29T04:04:59;47.80;;;28.13;;
22650;SDS011;11492;42.646;23.400;2022-12-29T04:07:24;48.38;;;27.13;;
22650;SDS011;11492;42.646;23.400;2022-12-29T04:09:50;48.92;;;25.95;;
22650;SDS011;11492;42.646;23.400;2022-12-29T04:12:15;49.25;;;27.63;;
22650;SDS011;11492;42.646;23.400;2022-12-29T04:14:41;48.95;;;27.48;;
22650;SDS011;11492;42.646;23.400;2022-12-29T04:17:06;50.08;;;26.92;;
22650;SDS011;11492;42.646;23.400;2022-12-29T04:19:32;49.88;;;27.65;;
22650;SDS011;11492;42.646;23.400;2022-12-29T04:21:57;49.85;;;28.33;;
22650;SDS011;11492;42.646;23.400;2022-12-29T04:24:23;51.95;;;28.13;;
22650;SDS011;11492;42.646;23.400;2022-12-29T04:26:48;51.90;;;28.95;;
22650;SDS011;11492;42.646;23.400;2022-12-29T04:29:14;57.45;;;30.02;;
22650;SDS011;11492;42.646;23.400;2022-12-29T04:31:39;56.80;;;30.52;;
22650;SDS011;11492;42.646;23.400;2022-12-29T04:34:05;61.08;;;29.75;;
22650;SDS011;11492;42.646;23.400;2022-12-29T04:36:30;52.45;;;29.70;;
22650;SDS011;11492;42.646;23.400;2022-12-29T04:38:56;58.38;;;28.80;;
22650;SDS011;11492;42.646;23.400;2022-12-29T04:41:21;64.50;;;29.08;;
22650;SDS011;11492;42.646;23.400;2022-12-29T04:43:47;60.42;;;31.13;;
22650;SDS011;11492;42.646;23.400;2022-12-29T04:46:12;48.75;;;27.25;;
22650;SDS011;11492;42.646;23.400;2022-12-29T04:48:37;52.05;;;27.35;;
22650;SDS011;11492;42.646;23.400;2022-12-29T04:51:03;53.63;;;28.08;;
22650;SDS011;11492;42.646;23.400;2022-12-29T04:53:28;49.92;;;27.98;;
22650;SDS011;11492;42.646;23.400;2022-12-29T04:55:54;54.97;;;29.67;;
22650;SDS011;11492;42.646;23.400;2022-12-29T04:58:20;56.97;;;29.50;;
22650;SDS011;11492;42.646;23.400;2022-12-29T05:00:47;55.05;;;28.63;;
22650;SDS011;11492;42.646;23.400;2022-12-29T05:03:12;60.63;;;27.23;;
22650;SDS011;11492;42.646;23.400;2022-12-29T05:05:38;51.03;;;27.92;;
22650;SDS011;11492;42.646;23.400;2022-12-29T05:08:04;52.85;;;27.60;;
22650;SDS011;11492;42.646;23.400;2022-12-29T05:10:29;54.80;;;29.83;;
22650;SDS011;11492;42.646;23.400;2022-12-29T05:12:55;50.90;;;28.23;;
22650;SDS011;11492;42.646;23.400;2022-12-29T05:15:20;50.05;;;27.42;;
22650;SDS011;11492;42.646;23.400;2022-12-29T05:17:46;54.47;;;28.38;;
22650;SDS011;11492;42.646;23.400;2022-12-29T05:20:11;52.63;;;27.45;;
22650;SDS011;11492;42.646;23.400;2022-12-29T05:22:37;52.53;;;27.85;;
22650;SDS011;11492;42.646;23.400;2022-12-29T05:25:03;51.33;;;26.90;;
22650;SDS011;11492;42.646;23.400;2022-12-29T05:27:28;56.83;;;28.73;;
22650;SDS011;11492;42.646;23.400;2022-12-29T05:29:54;56.58;;;29.10;;
22650;SDS011;11492;42.646;23.400;2022-12-29T05:32:19;48.25;;;28.02;;
22650;SDS011;11492;42.646;23.400;2022-12-29T05:34:45;50.22;;;26.42;;
22650;SDS011;11492;42.646;23.400;2022-12-29T05:37:10;42.17;;;23.63;;
22650;SDS011;11492;42.646;23.400;2022-12-29T05:39:36;44.85;;;24.55;;
22650;SDS011;11492;42.646;23.400;2022-12-29T05:42:01;42.63;;;23.20;;
22650;SDS011;11492;42.646;23.400;2022-12-29T05:44:26;40.97;;;22.85;;
22650;SDS011;11492;42.646;23.400;2022-12-29T05:46:52;46.25;;;21.90;;
22650;SDS011;11492;42.646;23.400;2022-12-29T05:49:17;36.38;;;21.75;;
22650;SDS011;11492;42.646;23.400;2022-12-29T05:51:43;38.55;;;19.83;;
22650;SDS011;11492;42.646;23.400;2022-12-29T05:54:09;39.97;;;22.52;;
22650;SDS011;11492;42.646;23.400;2022-12-29T05:56:34;44.35;;;20.90;;
22650;SDS011;11492;42.646;23.400;2022-12-29T05:58:59;36.80;;;22.02;;
22650;SDS011;11492;42.646;23.400;2022-12-29T06:01:25;39.38;;;21.55;;
22650;SDS011;11492;42.646;23.400;2022-12-29T06:03:51;38.60;;;21.80;;
22650;SDS011;11492;42.646;23.400;2022-12-29T06:06:16;37.35;;;21.42;;
22650;SDS011;11492;42.646;23.400;2022-12-29T06:08:41;37.65;;;21.52;;
22650;SDS011;11492;42.646;23.400;2022-12-29T06:11:07;36.67;;;21.73;;
22650;SDS011;11492;42.646;23.400;2022-12-29T06:13:32;37.50;;;21.20;;
22650;SDS011;11492;42.646;23.400;2022-12-29T06:15:57;35.95;;;20.88;;
22650;SDS011;11492;42.646;23.400;2022-12-29T06:18:23;39.05;;;22.38;;
22650;SDS011;11492;42.646;23.400;2022-12-29T06:20:48;39.95;;;22.90;;
22650;SDS011;11492;42.646;23.400;2022-12-29T06:23:14;41.05;;;23.50;;
22650;SDS011;11492;42.646;23.400;2022-12-29T06:25:40;45.78;;;23.80;;
22650;SDS011;11492;42.646;23.400;2022-12-29T06:28:05;46.40;;;24.38;;
22650;SDS011;11492;42.646;23.400;2022-12-29T06:30:31;47.97;;;24.48;;
22650;SDS011;11492;42.646;23.400;2022-12-29T06:33:00;43.15;;;23.85;;
22650;SDS011;11492;42.646;23.400;2022-12-29T06:35:25;43.25;;;24.40;;
22650;SDS011;11492;42.646;23.400;2022-12-29T06:37:51;55.63;;;25.27;;
22650;SDS011;11492;42.646;23.400;2022-12-29T06:40:17;47.50;;;25.48;;
22650;SDS011;11492;42.646;23.400;2022-12-29T06:42:42;44.90;;;25.38;;
22650;SDS011;11492;42.646;23.400;2022-12-29T06:45:08;47.40;;;26.90;;
22650;SDS011;11492;42.646;23.400;2022-12-29T06:47:34;50.63;;;26.52;;
22650;SDS011;11492;42.646;23.400;2022-12-29T06:50:00;44.25;;;24.17;;
22650;SDS011;11492;42.646;23.400;2022-12-29T06:52:26;49.72;;;25.40;;
22650;SDS011;11492;42.646;23.400;2022-12-29T06:54:51;48.03;;;25.65;;
22650;SDS011;11492;42.646;23.400;2022-12-29T06:57:16;48.42;;;25.52;;
22650;SDS011;11492;42.646;23.400;2022-12-29T06:59:42;43.70;;;23.65;;
22650;SDS011;11492;42.646;23.400;2022-12-29T07:02:09;42.63;;;24.55;;
22650;SDS011;11492;42.646;23.400;2022-12-29T07:04:35;44.25;;;24.58;;
22650;SDS011;11492;42.646;23.400;2022-12-29T07:07:01;45.42;;;24.23;;
22650;SDS011;11492;42.646;23.400;2022-12-29T07:09:26;42.63;;;24.30;;
22650;SDS011;11492;42.646;23.400;2022-12-29T07:11:52;47.13;;;23.48;;
22650;SDS011;11492;42.646;23.400;2022-12-29T07:14:17;38.63;;;22.73;;
22650;SDS011;11492;42.646;23.400;2022-12-29T07:16:42;40.67;;;22.70;;
22650;SDS011;11492;42.646;23.400;2022-12-29T07:19:08;45.08;;;23.58;;
22650;SDS011;11492;42.646;23.400;2022-12-29T07:21:33;42.08;;;23.85;;
22650;SDS011;11492;42.646;23.400;2022-12-29T07:23:59;51.92;;;27.33;;
22650;SDS011;11492;42.646;23.400;2022-12-29T07:26:24;52.03;;;27.10;;
22650;SDS011;11492;42.646;23.400;2022-12-29T07:28:50;53.65;;;28.40;;
22650;SDS011;11492;42.646;23.400;2022-12-29T07:31:19;45.20;;;24.73;;
22650;SDS011;11492;42.646;23.400;2022-12-29T07:33:46;43.20;;;22.67;;
22650;SDS011;11492;42.646;23.400;2022-12-29T07:36:13;47.05;;;23.83;;
22650;SDS011;11492;42.646;23.400;2022-12-29T07:38:39;43.03;;;23.08;;
22650;SDS011;11492;42.646;23.400;2022-12-29T07:41:05;43.55;;;23.75;;
22650;SDS011;11492;42.646;23.400;2022-12-29T07:43:30;45.30;;;25.33;;
22650;SDS011;11492;42.646;23.400;2022-12-29T07:45:56;45.90;;;25.08;;
22650;SDS011;11492;42.646;23.400;2022-12-29T07:48:21;44.03;;;25.65;;
22650;SDS011;11492;42.646;23.400;2022-12-29T07:50:47;46.85;;;25.45;;
22650;SDS011;11492;42.646;23.400;2022-12-29T07:53:13;44.63;;;24.48;;
22650;SDS011;11492;42.646;23.400;2022-12-29T07:55:39;44.53;;;25.02;;
22650;SDS011;11492;42.646;23.400;2022-12-29T07:58:04;49.50;;;24.27;;
22650;SDS011;11492;42.646;23.400;2022-12-29T08:00:30;43.60;;;23.67;;
22650;SDS011;11492;42.646;23.400;2022-12-29T08:02:55;44.55;;;24.50;;
22650;SDS011;11492;42.646;23.400;2022-12-29T08:05:20;50.15;;;26.13;;
22650;SDS011;11492;42.646;23.400;2022-12-29T08:07:46;47.70;;;26.20;;
22650;SDS011;11492;42.646;23.400;2022-12-29T08:10:12;48.00;;;25.42;;
22650;SDS011;11492;42.646;23.400;2022-12-29T08:12:38;42.10;;;22.58;;
22650;SDS011;11492;42.646;23.400;2022-12-29T08:15:05;39.20;;;23.98;;
22650;SDS011;11492;42.646;23.400;2022-12-29T08:17:32;41.88;;;24.15;;
22650;SDS011;11492;42.646;23.400;2022-12-29T08:19:57;47.58;;;26.17;;
22650;SDS011;11492;42.646;23.400;2022-12-29T08:22:23;43.50;;;25.98;;
22650;SDS011;11492;42.646;23.400;2022-12-29T08:24:48;45.58;;;25.70;;
22650;SDS011;11492;42.646;23.400;2022-12-29T08:27:14;47.17;;;25.20;;
22650;SDS011;11492;42.646;23.400;2022-12-29T08:29:39;47.65;;;24.70;;
22650;SDS011;11492;42.646;23.400;2022-12-29T08:32:06;45.17;;;24.77;;
22650;SDS011;11492;42.646;23.400;2022-12-29T08:34:32;48.25;;;25.73;;
22650;SDS011;11492;42.646;23.400;2022-12-29T08:36:57;53.72;;;26.67;;
22650;SDS011;11492;42.646;23.400;2022-12-29T08:39:23;45.95;;;25.52;;
22650;SDS011;11492;42.646;23.400;2022-12-29T08:41:48;58.78;;;27.70;;
22650;SDS011;11492;42.646;23.400;2022-12-29T08:44:14;54.22;;;28.27;;
22650;SDS011;11492;42.646;23.400;2022-12-29T08:46:39;47.17;;;27.95;;
22650;SDS011;11492;42.646;23.400;2022-12-29T08:49:04;53.25;;;27.33;;
22650;SDS011;11492;42.646;23.400;2022-12-29T08:51:30;58.00;;;27.65;;
22650;SDS011;11492;42.646;23.400;2022-12-29T08:53:55;47.80;;;27.67;;
22650;SDS011;11492;42.646;23.400;2022-12-29T08:56:21;75.47;;;36.03;;
22650;SDS011;11492;42.646;23.400;2022-12-29T08:58:48;56.45;;;28.75;;
22650;SDS011;11492;42.646;23.400;2022-12-29T09:01:14;50.95;;;28.17;;
22650;SDS011;11492;42.646;23.400;2022-12-29T09:03:40;52.38;;;27.25;;
22650;SDS011;11492;42.646;23.400;2022-12-29T09:06:05;46.05;;;26.10;;
22650;SDS011;11492;42.646;23.400;2022-12-29T09:08:31;49.17;;;28.17;;
22650;SDS011;11492;42.646;23.400;2022-12-29T09:11:05;47.25;;;26.95;;
22650;SDS011;11492;42.646;23.400;2022-12-29T09:13:33;53.05;;;28.40;;
22650;SDS011;11492;42.646;23.400;2022-12-29T09:15:59;47.97;;;28.77;;
22650;SDS011;11492;42.646;23.400;2022-12-29T09:18:24;47.55;;;28.33;;
22650;SDS011;11492;42.646;23.400;2022-12-29T09:20:55;45.88;;;25.55;;
22650;SDS011;11492;42.646;23.400;2022-12-29T09:23:21;40.13;;;23.92;;
22650;SDS011;11492;42.646;23.400;2022-12-29T09:25:47;42.25;;;23.40;;
22650;SDS011;11492;42.646;23.400;2022-12-29T09:28:12;38.58;;;22.23;;
22650;SDS011;11492;42.646;23.400;2022-12-29T09:30:38;44.17;;;22.85;;
22650;SDS011;11492;42.646;23.400;2022-12-29T09:33:04;40.47;;;22.80;;
22650;SDS011;11492;42.646;23.400;2022-12-29T09:35:29;42.08;;;23.02;;
22650;SDS011;11492;42.646;23.400;2022-12-29T09:37:55;40.95;;;22.70;;
22650;SDS011;11492;42.646;23.400;2022-12-29T09:40:22;36.53;;;22.40;;
22650;SDS011;11492;42.646;23.400;2022-12-29T09:46:15;42.03;;;22.65;;
22650;SDS011;11492;42.646;23.400;2022-12-29T09:48:52;36.20;;;22.65;;
22650;SDS011;11492;42.646;23.400;2022-12-29T09:51:37;40.63;;;23.60;;
22650;SDS011;11492;42.646;23.400;2022-12-29T09:54:51;43.67;;;23.73;;
22650;SDS011;11492;42.646;23.400;2022-12-29T09:57:13;43.50;;;23.60;;
22650;SDS011;11492;42.646;23.400;2022-12-29T09:59:42;40.35;;;23.77;;
22650;SDS011;11492;42.646;23.400;2022-12-29T10:02:16;39.53;;;23.70;;
22650;SDS011;11492;42.646;23.400;2022-12-29T10:04:51;44.05;;;23.85;;
22650;SDS011;11492;42.646;23.400;2022-12-29T10:07:28;39.47;;;22.73;;
22650;SDS011;11492;42.646;23.400;2022-12-29T10:10:03;41.67;;;23.48;;
22650;SDS011;11492;42.646;23.400;2022-12-29T10:12:55;45.55;;;23.83;;
22650;SDS011;11492;42.646;23.400;2022-12-29T10:23:33;35.22;;;21.90;;
22650;SDS011;11492;42.646;23.400;2022-12-29T10:26:07;41.30;;;23.67;;
22650;SDS011;11492;42.646;23.400;2022-12-29T10:31:09;37.75;;;24.23;;
22650;SDS011;11492;42.646;23.400;2022-12-29T10:33:40;37.53;;;22.73;;
22650;SDS011;11492;42.646;23.400;2022-12-29T10:36:50;38.92;;;22.05;;
22650;SDS011;11492;42.646;23.400;2022-12-29T10:45:01;37.53;;;22.85;;
22650;SDS011;11492;42.646;23.400;2022-12-29T10:47:29;39.03;;;22.08;;
22650;SDS011;11492;42.646;23.400;2022-12-29T10:50:00;37.65;;;23.27;;
22650;SDS011;11492;42.646;23.400;2022-12-29T10:52:27;36.97;;;23.95;;
22650;SDS011;11492;42.646;23.400;2022-12-29T10:55:08;39.88;;;24.20;;
22650;SDS011;11492;42.646;23.400;2022-12-29T10:57:44;45.75;;;23.05;;
22650;SDS011;11492;42.646;23.400;2022-12-29T11:08:25;41.38;;;23.73;;
22650;SDS011;11492;42.646;23.400;2022-12-29T11:11:03;38.17;;;22.95;;
22650;SDS011;11492;42.646;23.400;2022-12-29T11:14:19;34.42;;;22.60;;
22650;SDS011;11492;42.646;23.400;2022-12-29T11:16:39;39.83;;;22.98;;
22650;SDS011;11492;42.646;23.400;2022-12-29T11:19:22;39.10;;;22.45;;
22650;SDS011;11492;42.646;23.400;2022-12-29T11:21:50;39.83;;;23.70;;
22650;SDS011;11492;42.646;23.400;2022-12-29T11:26:45;39.85;;;23.42;;
22650;SDS011;11492;42.646;23.400;2022-12-29T11:29:16;44.13;;;24.08;;
22650;SDS011;11492;42.646;23.400;2022-12-29T11:31:46;44.33;;;24.67;;
22650;SDS011;11492;42.646;23.400;2022-12-29T11:34:17;44.35;;;25.48;;
22650;SDS011;11492;42.646;23.400;2022-12-29T11:36:44;38.85;;;22.35;;
22650;SDS011;11492;42.646;23.400;2022-12-29T11:39:22;39.83;;;22.15;;
22650;SDS011;11492;42.646;23.400;2022-12-29T11:41:53;42.35;;;23.27;;
22650;SDS011;11492;42.646;23.400;2022-12-29T11:44:18;37.17;;;23.92;;
22650;SDS011;11492;42.646;23.400;2022-12-29T11:46:46;40.10;;;22.70;;
22650;SDS011;11492;42.646;23.400;2022-12-29T11:49:19;39.80;;;23.40;;
22650;SDS011;11492;42.646;23.400;2022-12-29T11:51:47;38.08;;;23.45;;
22650;SDS011;11492;42.646;23.400;2022-12-29T11:54:17;36.75;;;23.23;;
22650;SDS011;11492;42.646;23.400;2022-12-29T11:56:47;46.67;;;24.65;;
22650;SDS011;11492;42.646;23.400;2022-12-29T11:59:24;38.35;;;25.20;;
22650;SDS011;11492;42.646;23.400;2022-12-29T12:01:54;41.25;;;24.30;;
22650;SDS011;11492;42.646;23.400;2022-12-29T12:04:26;38.38;;;24.77;;
22650;SDS011;11492;42.646;23.400;2022-12-29T12:07:11;43.13;;;24.27;;
22650;SDS011;11492;42.646;23.400;2022-12-29T12:09:45;44.50;;;24.27;;
22650;SDS011;11492;42.646;23.400;2022-12-29T12:12:22;35.00;;;23.42;;
22650;SDS011;11492;42.646;23.400;2022-12-29T12:14:54;45.75;;;24.83;;
22650;SDS011;11492;42.646;23.400;2022-12-29T12:25:29;44.35;;;28.05;;
22650;SDS011;11492;42.646;23.400;2022-12-29T12:28:01;48.63;;;28.02;;
22650;SDS011;11492;42.646;23.400;2022-12-29T12:30:43;48.10;;;28.50;;
22650;SDS011;11492;42.646;23.400;2022-12-29T12:33:29;50.25;;;28.70;;
22650;SDS011;11492;42.646;23.400;2022-12-29T12:36:13;45.55;;;28.27;;
22650;SDS011;11492;42.646;23.400;2022-12-29T12:44:31;60.00;;;30.77;;
22650;SDS011;11492;42.646;23.400;2022-12-29T12:53:09;52.63;;;30.33;;
22650;SDS011;11492;42.646;23.400;2022-12-29T12:55:30;54.92;;;30.70;;
22650;SDS011;11492;42.646;23.400;2022-12-29T13:01:23;74.80;;;31.35;;
22650;SDS011;11492;42.646;23.400;2022-12-29T13:06:27;55.28;;;32.10;;
22650;SDS011;11492;42.646;23.400;2022-12-29T13:09:08;61.13;;;31.20;;
22650;SDS011;11492;42.646;23.400;2022-12-29T13:11:48;63.13;;;31.77;;
22650;SDS011;11492;42.646;23.400;2022-12-29T13:17:36;61.40;;;31.95;;
22650;SDS011;11492;42.646;23.400;2022-12-29T13:20:33;67.93;;;32.33;;
22650;SDS011;11492;42.646;23.400;2022-12-29T13:26:02;67.55;;;31.55;;
22650;SDS011;11492;42.646;23.400;2022-12-29T13:36:31;53.72;;;28.73;;
22650;SDS011;11492;42.646;23.400;2022-12-29T13:43:55;51.58;;;28.15;;
22650;SDS011;11492;42.646;23.400;2022-12-29T13:46:24;41.10;;;25.38;;
22650;SDS011;11492;42.646;23.400;2022-12-29T13:49:07;43.88;;;24.85;;
22650;SDS011;11492;42.646;23.400;2022-12-29T13:51:40;43.75;;;25.10;;
22650;SDS011;11492;42.646;23.400;2022-12-29T13:57:10;47.13;;;25.50;;
22650;SDS011;11492;42.646;23.400;2022-12-29T13:59:51;45.83;;;25.58;;
22650;SDS011;11492;42.646;23.400;2022-12-29T14:04:58;51.60;;;26.67;;
22650;SDS011;11492;42.646;23.400;2022-12-29T14:07:24;49.63;;;27.55;;
22650;SDS011;11492;42.646;23.400;2022-12-29T14:09:51;50.22;;;28.23;;
22650;SDS011;11492;42.646;23.400;2022-12-29T14:12:40;46.75;;;26.88;;
22650;SDS011;11492;42.646;23.400;2022-12-29T14:17:34;51.83;;;29.48;;
22650;SDS011;11492;42.646;23.400;2022-12-29T14:20:00;50.63;;;27.88;;
22650;SDS011;11492;42.646;23.400;2022-12-29T14:22:26;58.38;;;29.55;;
22650;SDS011;11492;42.646;23.400;2022-12-29T14:24:53;61.75;;;28.30;;
22650;SDS011;11492;42.646;23.400;2022-12-29T14:29:44;56.72;;;29.08;;
22650;SDS011;11492;42.646;23.400;2022-12-29T14:34:45;50.15;;;27.05;;
22650;SDS011;11492;42.646;23.400;2022-12-29T14:37:53;52.03;;;28.25;;
22650;SDS011;11492;42.646;23.400;2022-12-29T14:42:48;54.53;;;28.35;;
22650;SDS011;11492;42.646;23.400;2022-12-29T14:50:47;50.92;;;28.55;;
22650;SDS011;11492;42.646;23.400;2022-12-29T14:53:10;50.97;;;29.15;;
22650;SDS011;11492;42.646;23.400;2022-12-29T14:56:11;55.53;;;30.23;;
22650;SDS011;11492;42.646;23.400;2022-12-29T15:01:39;61.40;;;29.13;;
22650;SDS011;11492;42.646;23.400;2022-12-29T15:04:20;62.92;;;31.10;;
22650;SDS011;11492;42.646;23.400;2022-12-29T15:06:48;66.60;;;30.60;;
22650;SDS011;11492;42.646;23.400;2022-12-29T15:11:59;54.33;;;29.80;;
22650;SDS011;11492;42.646;23.400;2022-12-29T15:14:32;52.90;;;30.20;;
22650;SDS011;11492;42.646;23.400;2022-12-29T15:17:00;59.03;;;30.27;;
22650;SDS011;11492;42.646;23.400;2022-12-29T15:19:27;57.80;;;28.95;;
22650;SDS011;11492;42.646;23.400;2022-12-29T15:21:54;59.40;;;29.70;;
22650;SDS011;11492;42.646;23.400;2022-12-29T15:24:20;72.28;;;31.25;;
22650;SDS011;11492;42.646;23.400;2022-12-29T15:26:47;62.50;;;30.70;;
22650;SDS011;11492;42.646;23.400;2022-12-29T15:29:28;62.15;;;31.83;;
22650;SDS011;11492;42.646;23.400;2022-12-29T15:32:15;64.07;;;33.08;;
22650;SDS011;11492;42.646;23.400;2022-12-29T15:34:45;91.70;;;39.70;;
22650;SDS011;11492;42.646;23.400;2022-12-29T15:37:19;84.53;;;35.60;;
22650;SDS011;11492;42.646;23.400;2022-12-29T15:39:48;88.88;;;34.42;;
22650;SDS011;11492;42.646;23.400;2022-12-29T15:42:29;86.72;;;34.97;;
22650;SDS011;11492;42.646;23.400;2022-12-29T15:44:59;80.38;;;37.03;;
22650;SDS011;11492;42.646;23.400;2022-12-29T15:47:29;82.07;;;35.70;;
22650;SDS011;11492;42.646;23.400;2022-12-29T15:50:02;76.20;;;33.92;;
22650;SDS011;11492;42.646;23.400;2022-12-29T15:52:39;68.00;;;34.05;;
22650;SDS011;11492;42.646;23.400;2022-12-29T15:55:05;71.78;;;34.38;;
22650;SDS011;11492;42.646;23.400;2022-12-29T15:57:44;74.15;;;33.17;;
22650;SDS011;11492;42.646;23.400;2022-12-29T16:00:27;67.88;;;33.85;;
22650;SDS011;11492;42.646;23.400;2022-12-29T16:02:55;67.75;;;33.55;;
22650;SDS011;11492;42.646;23.400;2022-12-29T16:05:24;72.05;;;32.90;;
22650;SDS011;11492;42.646;23.400;2022-12-29T16:07:58;69.88;;;32.88;;
22650;SDS011;11492;42.646;23.400;2022-12-29T16:10:43;70.43;;;33.95;;
22650;SDS011;11492;42.646;23.400;2022-12-29T16:15:47;71.95;;;32.45;;
22650;SDS011;11492;42.646;23.400;2022-12-29T16:18:33;68.63;;;31.80;;
22650;SDS011;11492;42.646;23.400;2022-12-29T16:21:01;66.60;;;33.00;;
22650;SDS011;11492;42.646;23.400;2022-12-29T16:23:29;61.30;;;31.85;;
22650;SDS011;11492;42.646;23.400;2022-12-29T16:25:56;60.00;;;31.88;;
22650;SDS011;11492;42.646;23.400;2022-12-29T16:28:23;70.05;;;31.98;;
22650;SDS011;11492;42.646;23.400;2022-12-29T16:31:01;64.47;;;32.85;;
22650;SDS011;11492;42.646;23.400;2022-12-29T16:33:39;71.15;;;35.45;;
22650;SDS011;11492;42.646;23.400;2022-12-29T16:36:30;78.88;;;38.90;;
22650;SDS011;11492;42.646;23.400;2022-12-29T16:39:20;73.28;;;36.55;;
22650;SDS011;11492;42.646;23.400;2022-12-29T16:41:51;96.13;;;40.55;;
22650;SDS011;11492;42.646;23.400;2022-12-29T16:44:26;85.38;;;38.33;;
22650;SDS011;11492;42.646;23.400;2022-12-29T16:46:58;79.90;;;36.85;;
22650;SDS011;11492;42.646;23.400;2022-12-29T16:49:33;72.88;;;35.42;;
22650;SDS011;11492;42.646;23.400;2022-12-29T16:51:59;82.97;;;36.63;;
22650;SDS011;11492;42.646;23.400;2022-12-29T16:54:35;73.68;;;35.45;;
22650;SDS011;11492;42.646;23.400;2022-12-29T16:57:02;72.00;;;33.70;;